sensor_id;sensor_type;location;lat;lon;timestamp;pressure;altitude;pressure_sealevel;temperature;humidity
60244;BME280;46106;51.468;5.814;2022-11-20T00:00:45;101001.56;;;-0.10;100.00
60244;BME280;46106;51.468;5.814;2022-11-20T00:03:10;101003.25;;;-0.06;100.00
60244;BME280;46106;51.468;5.814;2022-11-20T00:05:36;100998.09;;;-0.14;100.00
60244;BME280;46106;51.468;5.814;2022-11-20T00:08:01;100990.38;;;-0.25;100.00
60244;BME280;46106;51.468;5.814;2022-11-20T00:10:27;100988.22;;;-0.13;100.00
60244;BME280;46106;51.468;5.814;2022-11-20T00:12:52;100955.28;;;-0.22;100.00
60244;BME280;46106;51.468;5.814;2022-11-20T00:15:18;100975.94;;;-0.22;100.00
60244;BME280;46106;51.468;5.814;2022-11-20T00:17:43;100983.66;;;-0.40;100.00
60244;BME280;46106;51.468;5.814;2022-11-20T00:20:09;100978.28;;;-0.40;100.00
60244;BME280;46106;51.468;5.814;2022-11-20T00:22:35;100973.13;;;-0.46;100.00
60244;BME280;46106;51.468;5.814;2022-11-20T00:25:00;100976.09;;;-0.55;100.00
60244;BME280;46106;51.468;5.814;2022-11-20T00:27:26;100970.75;;;-0.57;100.00
60244;BME280;46106;51.468;5.814;2022-11-20T00:29:51;100970.06;;;-0.63;100.00
60244;BME280;46106;51.468;5.814;2022-11-20T00:32:16;100955.31;;;-0.78;100.00
60244;BME280;46106;51.468;5.814;2022-11-20T00:34:42;100950.06;;;-0.83;100.00
60244;BME280;46106;51.468;5.814;2022-11-20T00:37:07;100969.66;;;-0.79;100.00
60244;BME280;46106;51.468;5.814;2022-11-20T00:39:33;100967.00;;;-0.81;100.00
60244;BME280;46106;51.468;5.814;2022-11-20T00:41:58;100944.22;;;-0.97;100.00
60244;BME280;46106;51.468;5.814;2022-11-20T00:44:24;100965.53;;;-0.91;100.00
60244;BME280;46106;51.468;5.814;2022-11-20T00:46:49;100968.31;;;-0.94;100.00
60244;BME280;46106;51.468;5.814;2022-11-20T00:49:15;100958.56;;;-0.97;100.00
60244;BME280;46106;51.468;5.814;2022-11-20T00:51:40;100956.78;;;-0.98;100.00
60244;BME280;46106;51.468;5.814;2022-11-20T00:54:05;100933.81;;;-1.08;100.00
60244;BME280;46106;51.468;5.814;2022-11-20T00:56:31;100971.44;;;-0.78;100.00
60244;BME280;46106;51.468;5.814;2022-11-20T00:58:59;100968.84;;;-0.81;100.00
60244;BME280;46106;51.468;5.814;2022-11-20T01:01:26;100965.22;;;-0.80;100.00
60244;BME280;46106;51.468;5.814;2022-11-20T01:03:53;100957.31;;;-1.16;100.00
60244;BME280;46106;51.468;5.814;2022-11-20T01:06:26;100963.28;;;-1.05;100.00
60244;BME280;46106;51.468;5.814;2022-11-20T01:08:54;100955.56;;;-0.87;100.00
60244;BME280;46106;51.468;5.814;2022-11-20T01:11:26;100964.94;;;-1.01;100.00
60244;BME280;46106;51.468;5.814;2022-11-20T01:13:52;100934.97;;;-1.18;100.00
60244;BME280;46106;51.468;5.814;2022-11-20T01:16:22;100957.03;;;-1.07;100.00
60244;BME280;46106;51.468;5.814;2022-11-20T01:18:50;100970.94;;;-1.22;100.00
60244;BME280;46106;51.468;5.814;2022-11-20T01:21:27;100970.94;;;-1.22;100.00
60244;BME280;46106;51.468;5.814;2022-11-20T01:23:53;100962.31;;;-1.04;100.00
60244;BME280;46106;51.468;5.814;2022-11-20T01:26:22;100963.16;;;-1.02;100.00
60244;BME280;46106;51.468;5.814;2022-11-20T01:28:48;100953.47;;;-1.07;100.00
60244;BME280;46106;51.468;5.814;2022-11-20T01:31:17;100962.25;;;-1.01;100.00
60244;BME280;46106;51.468;5.814;2022-11-20T01:33:45;100945.72;;;-1.18;100.00
60244;BME280;46106;51.468;5.814;2022-11-20T01:36:11;100946.25;;;-1.37;100.00
60244;BME280;46106;51.468;5.814;2022-11-20T01:38:37;100958.81;;;-1.37;100.00
60244;BME280;46106;51.468;5.814;2022-11-20T01:41:03;100963.44;;;-1.42;100.00
60244;BME280;46106;51.468;5.814;2022-11-20T01:43:29;100954.72;;;-1.19;100.00
60244;BME280;46106;51.468;5.814;2022-11-20T01:46:08;100949.53;;;-1.25;100.00
60244;BME280;46106;51.468;5.814;2022-11-20T01:48:44;100957.16;;;-1.43;100.00
60244;BME280;46106;51.468;5.814;2022-11-20T01:51:46;100955.97;;;-1.31;100.00
60244;BME280;46106;51.468;5.814;2022-11-20T01:54:19;100960.97;;;-1.50;100.00
60244;BME280;46106;51.468;5.814;2022-11-20T01:56:48;100947.50;;;-1.49;100.00
60244;BME280;46106;51.468;5.814;2022-11-20T01:59:17;100942.72;;;-1.37;100.00
60244;BME280;46106;51.468;5.814;2022-11-20T02:01:45;100952.81;;;-1.47;100.00
60244;BME280;46106;51.468;5.814;2022-11-20T02:04:11;100952.78;;;-1.45;100.00
60244;BME280;46106;51.468;5.814;2022-11-20T02:06:44;100954.34;;;-1.38;100.00
60244;BME280;46106;51.468;5.814;2022-11-20T02:09:11;100945.91;;;-1.56;100.00
60244;BME280;46106;51.468;5.814;2022-11-20T02:11:37;100955.00;;;-1.61;100.00
60244;BME280;46106;51.468;5.814;2022-11-20T02:14:02;100955.34;;;-1.41;100.00
60244;BME280;46106;51.468;5.814;2022-11-20T02:16:30;100949.34;;;-1.51;100.00
60244;BME280;46106;51.468;5.814;2022-11-20T02:19:01;100950.50;;;-1.61;100.00
60244;BME280;46106;51.468;5.814;2022-11-20T02:24:12;100935.41;;;-1.65;100.00
60244;BME280;46106;51.468;5.814;2022-11-20T02:29:16;100945.44;;;-1.72;100.00
60244;BME280;46106;51.468;5.814;2022-11-20T02:31:43;100934.44;;;-1.62;100.00
60244;BME280;46106;51.468;5.814;2022-11-20T02:34:09;100949.31;;;-1.82;100.00
60244;BME280;46106;51.468;5.814;2022-11-20T02:36:35;100946.66;;;-1.83;100.00
60244;BME280;46106;51.468;5.814;2022-11-20T02:39:03;100945.38;;;-1.69;100.00
60244;BME280;46106;51.468;5.814;2022-11-20T02:41:36;100933.19;;;-1.82;100.00
60244;BME280;46106;51.468;5.814;2022-11-20T02:44:03;100942.63;;;-1.67;100.00
60244;BME280;46106;51.468;5.814;2022-11-20T02:46:29;100939.16;;;-1.72;100.00
60244;BME280;46106;51.468;5.814;2022-11-20T02:48:55;100939.09;;;-1.69;100.00
60244;BME280;46106;51.468;5.814;2022-11-20T02:51:21;100935.53;;;-1.70;100.00
60244;BME280;46106;51.468;5.814;2022-11-20T02:53:46;100934.41;;;-1.61;100.00
60244;BME280;46106;51.468;5.814;2022-11-20T02:56:12;100942.50;;;-1.62;100.00
60244;BME280;46106;51.468;5.814;2022-11-20T02:58:38;100949.47;;;-1.55;100.00
60244;BME280;46106;51.468;5.814;2022-11-20T03:01:04;100949.94;;;-1.39;100.00
60244;BME280;46106;51.468;5.814;2022-11-20T03:03:29;100942.03;;;-1.45;100.00
60244;BME280;46106;51.468;5.814;2022-11-20T03:05:55;100952.50;;;-1.36;100.00
60244;BME280;46106;51.468;5.814;2022-11-20T03:08:20;100940.34;;;-1.50;100.00
60244;BME280;46106;51.468;5.814;2022-11-20T03:10:45;100942.53;;;-1.31;100.00
60244;BME280;46106;51.468;5.814;2022-11-20T03:13:14;100937.34;;;-1.37;100.00
60244;BME280;46106;51.468;5.814;2022-11-20T03:15:39;100931.59;;;-1.56;100.00
60244;BME280;46106;51.468;5.814;2022-11-20T03:18:04;100934.06;;;-1.49;100.00
60244;BME280;46106;51.468;5.814;2022-11-20T03:20:32;100925.59;;;-1.35;100.00
60244;BME280;46106;51.468;5.814;2022-11-20T03:22:58;100928.13;;;-1.28;100.00
60244;BME280;46106;51.468;5.814;2022-11-20T03:25:23;100936.50;;;-1.39;100.00
60244;BME280;46106;51.468;5.814;2022-11-20T03:27:49;100914.94;;;-1.38;100.00
60244;BME280;46106;51.468;5.814;2022-11-20T03:30:14;100920.31;;;-1.38;100.00
60244;BME280;46106;51.468;5.814;2022-11-20T03:32:44;100926.19;;;-1.23;100.00
60244;BME280;46106;51.468;5.814;2022-11-20T03:35:10;100929.78;;;-1.23;100.00
60244;BME280;46106;51.468;5.814;2022-11-20T03:37:35;100926.31;;;-1.28;100.00
60244;BME280;46106;51.468;5.814;2022-11-20T03:40:00;100928.88;;;-1.23;100.00
60244;BME280;46106;51.468;5.814;2022-11-20T03:42:26;100927.41;;;-1.35;100.00
60244;BME280;46106;51.468;5.814;2022-11-20T03:45:10;100899.38;;;-1.56;100.00
60244;BME280;46106;51.468;5.814;2022-11-20T03:47:36;100924.81;;;-1.38;100.00
60244;BME280;46106;51.468;5.814;2022-11-20T03:50:02;100901.09;;;-1.54;100.00
60244;BME280;46106;51.468;5.814;2022-11-20T03:52:28;100922.72;;;-1.58;100.00
60244;BME280;46106;51.468;5.814;2022-11-20T03:54:53;100914.06;;;-1.70;100.00
60244;BME280;46106;51.468;5.814;2022-11-20T03:57:19;100910.78;;;-1.81;100.00
60244;BME280;46106;51.468;5.814;2022-11-20T03:59:44;100923.50;;;-1.88;100.00
60244;BME280;46106;51.468;5.814;2022-11-20T04:02:09;100907.56;;;-1.94;100.00
60244;BME280;46106;51.468;5.814;2022-11-20T04:04:35;100897.19;;;-2.08;100.00
60244;BME280;46106;51.468;5.814;2022-11-20T04:07:00;100899.53;;;-1.95;100.00
60244;BME280;46106;51.468;5.814;2022-11-20T04:09:26;100890.28;;;-1.82;100.00
60244;BME280;46106;51.468;5.814;2022-11-20T04:11:51;100868.69;;;-2.12;100.00
60244;BME280;46106;51.468;5.814;2022-11-20T04:14:17;100889.97;;;-2.06;100.00
60244;BME280;46106;51.468;5.814;2022-11-20T04:16:42;100893.41;;;-2.00;100.00
60244;BME280;46106;51.468;5.814;2022-11-20T04:19:14;100877.03;;;-1.90;100.00
60244;BME280;46106;51.468;5.814;2022-11-20T04:21:43;100889.84;;;-1.99;100.00
60244;BME280;46106;51.468;5.814;2022-11-20T04:24:09;100886.34;;;-2.03;100.00
60244;BME280;46106;51.468;5.814;2022-11-20T04:26:38;100884.38;;;-1.96;100.00
60244;BME280;46106;51.468;5.814;2022-11-20T04:29:04;100889.63;;;-1.92;100.00
60244;BME280;46106;51.468;5.814;2022-11-20T04:31:31;100890.50;;;-1.91;100.00
60244;BME280;46106;51.468;5.814;2022-11-20T04:34:05;100889.53;;;-1.89;100.00
60244;BME280;46106;51.468;5.814;2022-11-20T04:36:32;100900.47;;;-1.96;100.00
60244;BME280;46106;51.468;5.814;2022-11-20T04:38:59;100897.28;;;-2.11;100.00
60244;BME280;46106;51.468;5.814;2022-11-20T04:41:27;100900.06;;;-2.15;100.00
60244;BME280;46106;51.468;5.814;2022-11-20T04:43:56;100894.41;;;-2.03;100.00
60244;BME280;46106;51.468;5.814;2022-11-20T04:46:25;100909.81;;;-2.11;100.00
60244;BME280;46106;51.468;5.814;2022-11-20T04:48:51;100903.47;;;-2.09;100.00
60244;BME280;46106;51.468;5.814;2022-11-20T04:51:16;100893.50;;;-2.04;100.00
60244;BME280;46106;51.468;5.814;2022-11-20T04:53:42;100894.38;;;-2.01;100.00
60244;BME280;46106;51.468;5.814;2022-11-20T04:56:09;100889.91;;;-2.03;100.00
60244;BME280;46106;51.468;5.814;2022-11-20T04:58:35;100880.75;;;-1.95;100.00
60244;BME280;46106;51.468;5.814;2022-11-20T05:01:07;100875.59;;;-2.01;100.00
60244;BME280;46106;51.468;5.814;2022-11-20T05:03:34;100887.22;;;-2.03;100.00
60244;BME280;46106;51.468;5.814;2022-11-20T05:06:01;100887.94;;;-1.96;100.00
60244;BME280;46106;51.468;5.814;2022-11-20T05:08:28;100886.03;;;-1.92;100.00
60244;BME280;46106;51.468;5.814;2022-11-20T05:11:11;100895.22;;;-2.01;100.00
60244;BME280;46106;51.468;5.814;2022-11-20T05:13:38;100888.09;;;-2.02;100.00
60244;BME280;46106;51.468;5.814;2022-11-20T05:16:15;100875.09;;;-2.17;100.00
60244;BME280;46106;51.468;5.814;2022-11-20T05:18:41;100881.94;;;-2.06;100.00
60244;BME280;46106;51.468;5.814;2022-11-20T05:21:08;100879.25;;;-2.06;100.00
60244;BME280;46106;51.468;5.814;2022-11-20T05:23:34;100872.78;;;-1.98;100.00
60244;BME280;46106;51.468;5.814;2022-11-20T05:26:00;100861.63;;;-2.14;100.00
60244;BME280;46106;51.468;5.814;2022-11-20T05:28:27;100864.00;;;-2.04;100.00
60244;BME280;46106;51.468;5.814;2022-11-20T05:30:53;100869.25;;;-1.99;100.00
60244;BME280;46106;51.468;5.814;2022-11-20T05:33:19;100863.91;;;-2.00;100.00
60244;BME280;46106;51.468;5.814;2022-11-20T05:35:45;100861.34;;;-2.05;100.00
60244;BME280;46106;51.468;5.814;2022-11-20T05:38:10;100859.53;;;-2.03;100.00
60244;BME280;46106;51.468;5.814;2022-11-20T05:40:36;100848.38;;;-2.20;100.00
60244;BME280;46106;51.468;5.814;2022-11-20T05:43:02;100855.34;;;-2.15;100.00
60244;BME280;46106;51.468;5.814;2022-11-20T05:45:27;100849.91;;;-2.12;100.00
60244;BME280;46106;51.468;5.814;2022-11-20T05:47:53;100862.59;;;-2.18;100.00
60244;BME280;46106;51.468;5.814;2022-11-20T05:50:18;100857.31;;;-2.22;100.00
60244;BME280;46106;51.468;5.814;2022-11-20T05:52:44;100864.31;;;-2.14;100.00
60244;BME280;46106;51.468;5.814;2022-11-20T05:55:10;100848.25;;;-2.16;100.00
60244;BME280;46106;51.468;5.814;2022-11-20T05:57:35;100863.75;;;-1.94;100.00
60244;BME280;46106;51.468;5.814;2022-11-20T06:00:02;100868.31;;;-1.98;100.00
60244;BME280;46106;51.468;5.814;2022-11-20T06:02:28;100869.34;;;-2.04;100.00
60244;BME280;46106;51.468;5.814;2022-11-20T06:04:53;100868.03;;;-1.87;100.00
60244;BME280;46106;51.468;5.814;2022-11-20T06:07:18;100866.97;;;-1.81;100.00
60244;BME280;46106;51.468;5.814;2022-11-20T06:09:44;100871.63;;;-1.88;100.00
60244;BME280;46106;51.468;5.814;2022-11-20T06:12:09;100867.09;;;-1.86;100.00
60244;BME280;46106;51.468;5.814;2022-11-20T06:14:35;100854.59;;;-1.87;100.00
60244;BME280;46106;51.468;5.814;2022-11-20T06:17:00;100879.72;;;-1.90;100.00
60244;BME280;46106;51.468;5.814;2022-11-20T06:19:26;100873.44;;;-1.89;100.00
60244;BME280;46106;51.468;5.814;2022-11-20T06:21:51;100885.72;;;-1.80;100.00
60244;BME280;46106;51.468;5.814;2022-11-20T06:24:17;100889.13;;;-1.73;100.00
60244;BME280;46106;51.468;5.814;2022-11-20T06:26:42;100881.72;;;-1.65;100.00
60244;BME280;46106;51.468;5.814;2022-11-20T06:29:08;100884.06;;;-1.53;100.00
60244;BME280;46106;51.468;5.814;2022-11-20T06:31:33;100878.56;;;-1.48;100.00
60244;BME280;46106;51.468;5.814;2022-11-20T06:34:03;100890.09;;;-1.44;100.00
60244;BME280;46106;51.468;5.814;2022-11-20T06:36:28;100883.13;;;-1.52;100.00
60244;BME280;46106;51.468;5.814;2022-11-20T06:38:54;100897.97;;;-1.38;100.00
60244;BME280;46106;51.468;5.814;2022-11-20T06:41:21;100892.47;;;-1.34;100.00
60244;BME280;46106;51.468;5.814;2022-11-20T06:43:47;100889.78;;;-1.34;100.00
60244;BME280;46106;51.468;5.814;2022-11-20T06:46:14;100883.59;;;-1.36;100.00
60244;BME280;46106;51.468;5.814;2022-11-20T06:48:40;100890.47;;;-1.27;100.00
60244;BME280;46106;51.468;5.814;2022-11-20T06:51:07;100891.63;;;-1.36;100.00
60244;BME280;46106;51.468;5.814;2022-11-20T06:53:33;100880.00;;;-1.36;100.00
60244;BME280;46106;51.468;5.814;2022-11-20T06:55:59;100890.34;;;-1.22;100.00
60244;BME280;46106;51.468;5.814;2022-11-20T06:58:27;100878.78;;;-1.24;100.00
60244;BME280;46106;51.468;5.814;2022-11-20T07:00:53;100885.53;;;-1.11;100.00
60244;BME280;46106;51.468;5.814;2022-11-20T07:03:19;100879.38;;;-1.15;100.00
60244;BME280;46106;51.468;5.814;2022-11-20T07:05:44;100890.81;;;-1.08;100.00
60244;BME280;46106;51.468;5.814;2022-11-20T07:08:11;100887.19;;;-1.07;100.00
60244;BME280;46106;51.468;5.814;2022-11-20T07:10:37;100869.16;;;-1.03;100.00
60244;BME280;46106;51.468;5.814;2022-11-20T07:13:03;100870.09;;;-1.04;100.00
60244;BME280;46106;51.468;5.814;2022-11-20T07:15:29;100873.28;;;-0.91;100.00
60244;BME280;46106;51.468;5.814;2022-11-20T07:17:58;100868.09;;;-0.98;100.00
60244;BME280;46106;51.468;5.814;2022-11-20T07:20:24;100867.81;;;-0.88;100.00
60244;BME280;46106;51.468;5.814;2022-11-20T07:22:56;100872.44;;;-0.94;100.00
60244;BME280;46106;51.468;5.814;2022-11-20T07:25:23;100871.53;;;-0.93;100.00
60244;BME280;46106;51.468;5.814;2022-11-20T07:27:49;100856.44;;;-0.97;100.00
60244;BME280;46106;51.468;5.814;2022-11-20T07:30:15;100868.66;;;-0.86;100.00
60244;BME280;46106;51.468;5.814;2022-11-20T07:32:40;100874.06;;;-0.88;100.00
60244;BME280;46106;51.468;5.814;2022-11-20T07:35:09;100881.22;;;-0.87;100.00
60244;BME280;46106;51.468;5.814;2022-11-20T07:37:35;100876.81;;;-0.89;100.00
60244;BME280;46106;51.468;5.814;2022-11-20T07:40:00;100874.13;;;-0.89;100.00
60244;BME280;46106;51.468;5.814;2022-11-20T07:42:26;100877.31;;;-0.77;100.00
60244;BME280;46106;51.468;5.814;2022-11-20T07:44:51;100859.63;;;-0.85;100.00
60244;BME280;46106;51.468;5.814;2022-11-20T07:47:17;100863.50;;;-0.66;100.00
60244;BME280;46106;51.468;5.814;2022-11-20T07:49:42;100871.31;;;-0.58;100.00
60244;BME280;46106;51.468;5.814;2022-11-20T07:52:08;100873.03;;;-0.56;100.00
60244;BME280;46106;51.468;5.814;2022-11-20T07:54:33;100869.72;;;-0.37;100.00
60244;BME280;46106;51.468;5.814;2022-11-20T07:56:59;100864.44;;;-0.40;100.00
60244;BME280;46106;51.468;5.814;2022-11-20T07:59:24;100861.66;;;-0.37;100.00
60244;BME280;46106;51.468;5.814;2022-11-20T08:01:50;100867.97;;;-0.38;100.00
60244;BME280;46106;51.468;5.814;2022-11-20T08:04:15;100873.38;;;-0.40;100.00
60244;BME280;46106;51.468;5.814;2022-11-20T08:06:41;100873.25;;;-0.35;100.00
60244;BME280;46106;51.468;5.814;2022-11-20T08:09:07;100878.44;;;-0.29;100.00
60244;BME280;46106;51.468;5.814;2022-11-20T08:11:33;100868.44;;;-0.25;100.00
60244;BME280;46106;51.468;5.814;2022-11-20T08:14:17;100871.22;;;-0.28;100.00
60244;BME280;46106;51.468;5.814;2022-11-20T08:16:44;100868.03;;;-0.13;100.00
60244;BME280;46106;51.468;5.814;2022-11-20T08:19:11;100858.94;;;-0.10;100.00
60244;BME280;46106;51.468;5.814;2022-11-20T08:21:37;100863.97;;;0.01;100.00
60244;BME280;46106;51.468;5.814;2022-11-20T08:24:03;100863.91;;;0.02;100.00
60244;BME280;46106;51.468;5.814;2022-11-20T08:26:29;100845.84;;;0.06;100.00
60244;BME280;46106;51.468;5.814;2022-11-20T08:28:57;100837.44;;;0.15;100.00
60244;BME280;46106;51.468;5.814;2022-11-20T08:31:24;100846.22;;;0.20;100.00
60244;BME280;46106;51.468;5.814;2022-11-20T08:33:51;100846.78;;;0.30;100.00
60244;BME280;46106;51.468;5.814;2022-11-20T08:36:17;100840.22;;;0.37;100.00
60244;BME280;46106;51.468;5.814;2022-11-20T08:38:47;100840.28;;;0.35;100.00
60244;BME280;46106;51.468;5.814;2022-11-20T08:41:13;100839.28;;;0.38;100.00
60244;BME280;46106;51.468;5.814;2022-11-20T08:43:57;100841.06;;;0.63;100.00
60244;BME280;46106;51.468;5.814;2022-11-20T08:46:28;100849.25;;;0.60;100.00
60244;BME280;46106;51.468;5.814;2022-11-20T08:48:56;100849.47;;;0.53;100.00
60244;BME280;46106;51.468;5.814;2022-11-20T08:51:21;100822.00;;;0.44;100.00
60244;BME280;46106;51.468;5.814;2022-11-20T08:53:47;100845.47;;;0.64;100.00
60244;BME280;46106;51.468;5.814;2022-11-20T08:56:14;100830.22;;;0.64;100.00
60244;BME280;46106;51.468;5.814;2022-11-20T08:58:40;100864.13;;;0.70;100.00
60244;BME280;46106;51.468;5.814;2022-11-20T09:01:05;100863.03;;;0.76;100.00
60244;BME280;46106;51.468;5.814;2022-11-20T09:03:31;100859.31;;;0.78;100.00
60244;BME280;46106;51.468;5.814;2022-11-20T09:06:03;100847.84;;;0.73;100.00
60244;BME280;46106;51.468;5.814;2022-11-20T09:08:29;100848.94;;;0.91;100.00
60244;BME280;46106;51.468;5.814;2022-11-20T09:10:56;100845.25;;;0.94;100.00
60244;BME280;46106;51.468;5.814;2022-11-20T09:13:23;100841.75;;;1.14;100.00
60244;BME280;46106;51.468;5.814;2022-11-20T09:15:56;100836.63;;;1.07;100.00
60244;BME280;46106;51.468;5.814;2022-11-20T09:18:23;100840.50;;;1.00;100.00
60244;BME280;46106;51.468;5.814;2022-11-20T09:20:49;100830.59;;;1.01;100.00
60244;BME280;46106;51.468;5.814;2022-11-20T09:23:15;100840.13;;;1.09;100.00
60244;BME280;46106;51.468;5.814;2022-11-20T09:25:41;100836.31;;;1.15;100.00
60244;BME280;46106;51.468;5.814;2022-11-20T09:28:07;100837.13;;;1.17;100.00
60244;BME280;46106;51.468;5.814;2022-11-20T09:30:32;100834.50;;;1.38;100.00
60244;BME280;46106;51.468;5.814;2022-11-20T09:32:58;100830.72;;;1.42;100.00
60244;BME280;46106;51.468;5.814;2022-11-20T09:35:24;100814.66;;;1.39;100.00
60244;BME280;46106;51.468;5.814;2022-11-20T09:37:50;100824.94;;;1.51;100.00
60244;BME280;46106;51.468;5.814;2022-11-20T09:40:24;100815.03;;;1.52;100.00
60244;BME280;46106;51.468;5.814;2022-11-20T09:50:47;100808.69;;;1.53;100.00
60244;BME280;46106;51.468;5.814;2022-11-20T09:56:03;100804.03;;;1.56;100.00
60244;BME280;46106;51.468;5.814;2022-11-20T09:58:33;100804.09;;;1.55;100.00
60244;BME280;46106;51.468;5.814;2022-11-20T10:01:23;100806.69;;;1.58;100.00
60244;BME280;46106;51.468;5.814;2022-11-20T10:06:31;100805.53;;;1.63;100.00
60244;BME280;46106;51.468;5.814;2022-11-20T10:14:42;100795.28;;;1.72;100.00
60244;BME280;46106;51.468;5.814;2022-11-20T10:25:40;100762.75;;;1.95;100.00
60244;BME280;46106;51.468;5.814;2022-11-20T10:28:24;100761.00;;;2.15;100.00
60244;BME280;46106;51.468;5.814;2022-11-20T10:31:03;100762.25;;;2.06;100.00
60244;BME280;46106;51.468;5.814;2022-11-20T10:33:33;100749.28;;;2.14;100.00
60244;BME280;46106;51.468;5.814;2022-11-20T10:39:18;100737.84;;;2.28;100.00
60244;BME280;46106;51.468;5.814;2022-11-20T10:41:49;100727.78;;;2.32;100.00
60244;BME280;46106;51.468;5.814;2022-11-20T10:44:26;100712.00;;;2.42;100.00
60244;BME280;46106;51.468;5.814;2022-11-20T10:47:14;100691.19;;;2.44;100.00
60244;BME280;46106;51.468;5.814;2022-11-20T10:49:41;100693.91;;;2.44;100.00
60244;BME280;46106;51.468;5.814;2022-11-20T10:54:58;100700.47;;;2.57;100.00
60244;BME280;46106;51.468;5.814;2022-11-20T11:00:02;100692.34;;;2.57;100.00
60244;BME280;46106;51.468;5.814;2022-11-20T11:02:35;100674.47;;;2.54;100.00
60244;BME280;46106;51.468;5.814;2022-11-20T11:05:17;100669.25;;;2.69;100.00
60244;BME280;46106;51.468;5.814;2022-11-20T11:07:54;100674.22;;;2.78;100.00
60244;BME280;46106;51.468;5.814;2022-11-20T11:13:02;100651.88;;;2.74;100.00
60244;BME280;46106;51.468;5.814;2022-11-20T11:15:39;100662.03;;;2.87;100.00
60244;BME280;46106;51.468;5.814;2022-11-20T11:18:08;100662.22;;;2.84;100.00
60244;BME280;46106;51.468;5.814;2022-11-20T11:20:34;100666.94;;;2.98;100.00
60244;BME280;46106;51.468;5.814;2022-11-20T11:23:00;100651.50;;;3.00;100.00
60244;BME280;46106;51.468;5.814;2022-11-20T11:27:52;100646.88;;;3.19;100.00
60244;BME280;46106;51.468;5.814;2022-11-20T11:30:19;100644.34;;;3.16;100.00
60244;BME280;46106;51.468;5.814;2022-11-20T11:32:45;100625.41;;;3.16;100.00
60244;BME280;46106;51.468;5.814;2022-11-20T11:37:48;100624.84;;;3.09;100.00
60244;BME280;46106;51.468;5.814;2022-11-20T11:40:15;100636.22;;;3.16;100.00
60244;BME280;46106;51.468;5.814;2022-11-20T11:43:04;100632.25;;;3.23;100.00
60244;BME280;46106;51.468;5.814;2022-11-20T11:45:30;100617.63;;;3.10;100.00
60244;BME280;46106;51.468;5.814;2022-11-20T11:48:01;100639.75;;;3.18;100.00
60244;BME280;46106;51.468;5.814;2022-11-20T11:50:29;100634.88;;;3.25;100.00
60244;BME280;46106;51.468;5.814;2022-11-20T11:55:43;100626.84;;;3.23;100.00
60244;BME280;46106;51.468;5.814;2022-11-20T11:58:44;100630.41;;;3.24;100.00
60244;BME280;46106;51.468;5.814;2022-11-20T12:01:29;100624.22;;;3.22;100.00
60244;BME280;46106;51.468;5.814;2022-11-20T12:04:19;100619.53;;;3.25;100.00
60244;BME280;46106;51.468;5.814;2022-11-20T12:06:58;100610.94;;;3.17;100.00
60244;BME280;46106;51.468;5.814;2022-11-20T12:09:34;100602.72;;;3.19;100.00
60244;BME280;46106;51.468;5.814;2022-11-20T12:12:10;100590.84;;;3.39;100.00
60244;BME280;46106;51.468;5.814;2022-11-20T12:14:42;100591.25;;;3.31;100.00
60244;BME280;46106;51.468;5.814;2022-11-20T12:17:13;100579.16;;;3.38;100.00
60244;BME280;46106;51.468;5.814;2022-11-20T12:19:39;100557.91;;;3.30;100.00
60244;BME280;46106;51.468;5.814;2022-11-20T12:23:07;100567.81;;;3.47;100.00
60244;BME280;46106;51.468;5.814;2022-11-20T12:25:24;100552.81;;;3.42;100.00
60244;BME280;46106;51.468;5.814;2022-11-20T12:39:50;100514.88;;;3.59;100.00
60244;BME280;46106;51.468;5.814;2022-11-20T12:42:26;100507.53;;;3.61;100.00
60244;BME280;46106;51.468;5.814;2022-11-20T12:45:21;100495.47;;;3.67;100.00
60244;BME280;46106;51.468;5.814;2022-11-20T12:51:21;100492.31;;;3.59;100.00
60244;BME280;46106;51.468;5.814;2022-11-20T13:07:16;100462.63;;;3.73;100.00
60244;BME280;46106;51.468;5.814;2022-11-20T13:09:46;100462.38;;;3.78;100.00
60244;BME280;46106;51.468;5.814;2022-11-20T13:12:35;100460.19;;;3.84;100.00
60244;BME280;46106;51.468;5.814;2022-11-20T13:15:31;100446.81;;;3.81;100.00
60244;BME280;46106;51.468;5.814;2022-11-20T13:18:00;100437.03;;;3.95;100.00
60244;BME280;46106;51.468;5.814;2022-11-20T13:20:27;100428.38;;;3.88;100.00
60244;BME280;46106;51.468;5.814;2022-11-20T13:22:55;100422.69;;;3.93;100.00
60244;BME280;46106;51.468;5.814;2022-11-20T13:25:31;100409.22;;;4.07;100.00
60244;BME280;46106;51.468;5.814;2022-11-20T13:28:26;100416.94;;;3.99;100.00
60244;BME280;46106;51.468;5.814;2022-11-20T13:30:52;100413.63;;;3.94;100.00
60244;BME280;46106;51.468;5.814;2022-11-20T13:33:22;100408.72;;;4.00;100.00
60244;BME280;46106;51.468;5.814;2022-11-20T13:36:01;100398.84;;;3.99;100.00
60244;BME280;46106;51.468;5.814;2022-11-20T13:38:26;100396.41;;;3.95;100.00
60244;BME280;46106;51.468;5.814;2022-11-20T13:41:00;100388.34;;;4.09;100.00
60244;BME280;46106;51.468;5.814;2022-11-20T13:43:46;100391.41;;;4.03;100.00
60244;BME280;46106;51.468;5.814;2022-11-20T13:46:12;100382.22;;;4.05;100.00
60244;BME280;46106;51.468;5.814;2022-11-20T13:48:45;100380.78;;;4.14;100.00
60244;BME280;46106;51.468;5.814;2022-11-20T13:51:42;100372.06;;;4.09;100.00
60244;BME280;46106;51.468;5.814;2022-11-20T13:57:21;100373.25;;;4.05;100.00
60244;BME280;46106;51.468;5.814;2022-11-20T14:00:12;100358.34;;;4.12;100.00
60244;BME280;46106;51.468;5.814;2022-11-20T14:02:38;100323.38;;;3.93;100.00
60244;BME280;46106;51.468;5.814;2022-11-20T14:05:05;100350.63;;;4.20;100.00
60244;BME280;46106;51.468;5.814;2022-11-20T14:07:40;100351.25;;;4.10;100.00
60244;BME280;46106;51.468;5.814;2022-11-20T14:10:20;100343.63;;;4.16;100.00
60244;BME280;46106;51.468;5.814;2022-11-20T14:12:45;100329.31;;;4.14;100.00
60244;BME280;46106;51.468;5.814;2022-11-20T14:15:32;100327.28;;;4.18;100.00